createdAt,value
2022-10-15T00:01:50.300Z,25.63
2022-10-15T00:04:18.831Z,28.50
2022-10-15T00:06:47.334Z,28.83
2022-10-15T00:09:15.772Z,28.63
2022-10-15T00:11:44.337Z,28.63
2022-10-15T00:14:12.808Z,29.13
2022-10-15T00:16:41.297Z,30.87
2022-10-15T00:19:11.603Z,29.07
2022-10-15T00:21:40.143Z,29.53
2022-10-15T00:24:09.101Z,29.73
2022-10-15T00:26:37.599Z,27.67
2022-10-15T00:29:06.520Z,29.57
2022-10-15T00:31:35.227Z,31.97
2022-10-15T00:34:03.882Z,33.67
2022-10-15T00:36:34.430Z,36.80
2022-10-15T00:39:03.070Z,39.63
2022-10-15T00:41:32.710Z,38.63
2022-10-15T00:44:01.963Z,42.70
2022-10-15T00:46:32.697Z,40.37
2022-10-15T00:51:41.722Z,43.27
2022-10-15T00:54:11.122Z,35.23
2022-10-15T00:56:40.996Z,39.20
2022-10-15T00:59:10.129Z,44.17
2022-10-15T01:01:38.737Z,44.23
2022-10-15T01:04:07.842Z,43.00
2022-10-15T01:06:37.003Z,43.60
2022-10-15T01:09:07.019Z,43.47
2022-10-15T01:11:39.939Z,44.27
2022-10-15T01:14:14.452Z,43.50
2022-10-15T01:16:47.443Z,41.80
2022-10-15T01:19:25.940Z,42.07
2022-10-15T01:21:58.723Z,43.07
2022-10-15T01:24:40.366Z,34.93
2022-10-15T01:27:21.267Z,33.43
2022-10-15T01:30:00.452Z,32.93
2022-10-15T01:32:31.132Z,30.87
2022-10-15T01:35:05.029Z,29.80
2022-10-15T01:37:38.296Z,27.30
2022-10-15T01:40:08.623Z,26.23
2022-10-15T01:42:41.029Z,33.60
2022-10-15T01:45:11.238Z,32.90
2022-10-15T01:47:43.537Z,64.87
2022-10-15T01:50:13.825Z,75.77
2022-10-15T01:52:42.753Z,41.20
2022-10-15T01:55:13.554Z,37.43
2022-10-15T01:57:43.322Z,30.83
2022-10-15T02:00:12.323Z,75.33
2022-10-15T02:02:42.238Z,37.37
2022-10-15T02:05:12.883Z,19.77
2022-10-15T02:07:45.900Z,20.23
2022-10-15T02:10:17.108Z,17.53
2022-10-15T02:12:52.095Z,15.63
2022-10-15T02:15:25.682Z,17.33
2022-10-15T02:18:00.118Z,26.20
2022-10-15T02:20:31.035Z,167.80
2022-10-15T02:23:03.051Z,20.27
2022-10-15T02:25:32.253Z,18.60
2022-10-15T02:28:01.810Z,16.97
2022-10-15T02:30:31.136Z,17.80
2022-10-15T02:33:01.491Z,16.20
2022-10-15T02:35:30.315Z,19.37
2022-10-15T02:38:00.219Z,20.60
2022-10-15T02:40:30.507Z,19.43
2022-10-15T02:42:59.013Z,21.03
2022-10-15T02:45:27.610Z,32.43
2022-10-15T02:47:56.185Z,28.93
2022-10-15T02:50:26.050Z,85.63
2022-10-15T02:52:54.679Z,39.13
2022-10-15T02:55:23.158Z,22.43
2022-10-15T02:57:51.652Z,31.53
2022-10-15T03:00:20.427Z,20.63
2022-10-15T03:02:49.095Z,36.07
2022-10-15T03:05:17.982Z,21.37
2022-10-15T03:07:47.934Z,13.07
2022-10-15T03:10:16.481Z,43.93
2022-10-15T03:12:44.997Z,39.20
2022-10-15T03:15:13.529Z,20.93
2022-10-15T03:17:42.054Z,15.53
2022-10-15T03:20:10.656Z,27.13
2022-10-15T03:22:39.947Z,28.10
2022-10-15T03:25:10.072Z,50.73
2022-10-15T03:27:38.588Z,71.17
2022-10-15T03:30:07.595Z,58.60
2022-10-15T03:32:36.511Z,63.03
2022-10-15T03:35:05.861Z,41.63
2022-10-15T03:37:34.411Z,25.80
2022-10-15T03:40:03.254Z,20.17
2022-10-15T03:42:33.146Z,52.70
2022-10-15T03:45:01.613Z,48.33
2022-10-15T03:47:30.096Z,25.03
2022-10-15T03:49:58.565Z,16.10
2022-10-15T03:52:27.149Z,16.13
2022-10-15T03:54:55.751Z,59.33
2022-10-15T03:57:24.305Z,75.27
2022-10-15T03:59:54.214Z,110.87
2022-10-15T04:02:22.913Z,81.73
2022-10-15T04:04:54.174Z,100.53
2022-10-15T04:07:22.747Z,37.23
2022-10-15T04:09:51.629Z,49.70
2022-10-15T04:12:20.317Z,38.47
2022-10-15T04:14:48.986Z,105.47
2022-10-15T04:17:19.030Z,43.63
2022-10-15T04:19:47.627Z,52.80
2022-10-15T04:22:16.222Z,19.90
2022-10-15T04:24:44.765Z,43.63
2022-10-15T04:29:49.242Z,15.10
2022-10-15T04:32:19.237Z,18.13
2022-10-15T04:34:48.434Z,16.60
2022-10-15T04:37:17.053Z,21.60
2022-10-15T04:39:45.548Z,17.20
2022-10-15T04:42:14.115Z,23.70
2022-10-15T04:44:42.668Z,32.97
2022-10-15T04:47:11.202Z,17.63
2022-10-15T04:49:41.128Z,41.13
2022-10-15T04:52:09.724Z,38.33
2022-10-15T04:54:38.264Z,17.30
2022-10-15T04:57:07.512Z,23.30
2022-10-15T04:59:36.092Z,46.67
2022-10-15T05:02:04.709Z,22.50
2022-10-15T05:04:33.523Z,21.23
2022-10-15T05:07:03.521Z,34.33
2022-10-15T05:09:33.805Z,179.43
2022-10-15T05:12:05.495Z,37.63
2022-10-15T05:14:35.815Z,83.07
2022-10-15T05:17:04.540Z,99.43
2022-10-15T05:19:33.052Z,55.70
2022-10-15T05:22:02.969Z,38.23
2022-10-15T05:24:31.499Z,67.37
2022-10-15T05:27:02.826Z,31.77
2022-10-15T05:29:31.869Z,30.97
2022-10-15T05:32:00.347Z,27.53
2022-10-15T05:34:30.743Z,14.23
2022-10-15T05:36:59.362Z,39.27
2022-10-15T05:39:29.313Z,108.53
2022-10-15T05:41:58.193Z,52.23
2022-10-15T05:44:26.788Z,22.27
2022-10-15T05:46:55.287Z,21.00
2022-10-15T05:49:23.869Z,26.30
2022-10-15T05:51:52.474Z,23.40
2022-10-15T05:54:21.008Z,26.30
2022-10-15T05:56:50.844Z,26.93
2022-10-15T05:59:19.376Z,25.90
2022-10-15T06:01:47.868Z,27.17
2022-10-15T06:04:17.182Z,30.47
2022-10-15T06:06:45.734Z,31.60
2022-10-15T06:09:14.876Z,28.50
2022-10-15T06:11:44.586Z,31.40
2022-10-15T06:14:14.690Z,34.70
2022-10-15T06:16:43.245Z,57.63
2022-10-15T06:19:11.953Z,58.20
2022-10-15T06:21:40.413Z,64.43
2022-10-15T06:24:10.134Z,72.73
2022-10-15T06:26:38.899Z,118.47
2022-10-15T06:29:07.423Z,87.13
2022-10-15T06:31:37.324Z,91.73
2022-10-15T06:34:05.908Z,79.00
2022-10-15T06:36:34.467Z,71.73
2022-10-15T06:39:03.048Z,74.30
2022-10-15T06:41:31.660Z,84.80
2022-10-15T06:44:01.187Z,72.80
2022-10-15T06:46:30.713Z,74.97
2022-10-15T06:49:01.647Z,73.10
2022-10-15T06:51:34.480Z,75.13
2022-10-15T06:54:06.759Z,73.50
2022-10-15T06:56:38.624Z,77.70
2022-10-15T06:59:09.953Z,85.03
2022-10-15T07:01:42.175Z,91.23
2022-10-15T07:04:14.655Z,138.07
2022-10-15T07:06:44.395Z,162.83
2022-10-15T07:09:13.160Z,180.47
2022-10-15T07:11:41.740Z,175.53
2022-10-15T07:14:10.642Z,192.53
2022-10-15T07:16:39.956Z,172.13
2022-10-15T07:19:08.564Z,162.50
2022-10-15T07:21:38.655Z,162.03
2022-10-15T07:24:07.628Z,165.07
2022-10-15T07:26:36.372Z,159.00
2022-10-15T07:29:05.375Z,146.60
2022-10-15T07:31:34.025Z,144.47
2022-10-15T07:34:07.544Z,139.37
2022-10-15T07:36:58.277Z,140.93
2022-10-15T07:39:30.462Z,145.03
2022-10-15T07:42:00.271Z,134.23
2022-10-15T07:44:30.530Z,137.20
2022-10-15T07:46:59.670Z,144.43
2022-10-15T07:49:28.334Z,140.43
2022-10-15T07:51:56.988Z,128.40
2022-10-15T07:54:25.627Z,132.70
2022-10-15T07:56:55.531Z,116.80
2022-10-15T07:59:24.218Z,124.03
2022-10-15T08:01:52.717Z,112.70
2022-10-15T08:04:21.601Z,110.43
2022-10-15T08:06:50.074Z,107.73
2022-10-15T08:09:18.588Z,98.70
2022-10-15T08:11:47.047Z,95.90
2022-10-15T08:14:17.873Z,91.93
2022-10-15T08:16:46.342Z,98.37
2022-10-15T08:19:17.694Z,93.27
2022-10-15T08:21:47.461Z,98.23
2022-10-15T08:24:16.406Z,93.23
2022-10-15T08:26:44.919Z,94.13
2022-10-15T08:29:13.617Z,93.63
2022-10-15T08:31:43.791Z,87.50
2022-10-15T08:34:12.292Z,91.67
2022-10-15T08:36:40.786Z,87.43
2022-10-15T08:39:10.111Z,79.73
2022-10-15T08:41:40.015Z,81.37
2022-10-15T08:44:08.954Z,78.70
2022-10-15T08:46:39.420Z,77.37
2022-10-15T08:49:15.832Z,76.87
2022-10-15T08:51:46.838Z,68.73
2022-10-15T08:54:17.506Z,72.57
2022-10-15T08:56:47.539Z,64.67
2022-10-15T08:59:23.196Z,68.47
2022-10-15T09:01:52.934Z,69.23
2022-10-15T09:07:04.167Z,71.40
2022-10-15T09:09:39.108Z,67.43
2022-10-15T09:12:11.123Z,62.67
2022-10-15T09:14:40.849Z,61.77
2022-10-15T09:17:16.346Z,57.73
2022-10-15T09:19:46.515Z,57.33
2022-10-15T09:22:16.989Z,59.57
2022-10-15T09:24:45.672Z,51.77
2022-10-15T09:27:18.251Z,48.17
2022-10-15T09:29:50.036Z,48.08
2022-10-15T09:32:23.206Z,46.22
2022-10-15T09:34:56.720Z,41.38
2022-10-15T09:37:28.027Z,42.05
2022-10-15T09:40:03.175Z,36.92
2022-10-15T09:42:33.186Z,39.45
2022-10-15T09:45:03.003Z,39.75
2022-10-15T09:47:31.998Z,37.25
2022-10-15T09:50:02.573Z,40.08
2022-10-15T09:52:41.645Z,38.17
2022-10-15T09:55:14.457Z,39.38
2022-10-15T09:57:43.704Z,40.70
2022-10-15T10:00:14.825Z,39.72
2022-10-15T10:02:43.550Z,37.50
2022-10-15T10:05:29.287Z,39.15
2022-10-15T10:08:09.644Z,32.63
2022-10-15T10:10:41.787Z,36.60
2022-10-15T10:13:23.934Z,36.10
2022-10-15T10:15:57.632Z,35.55
2022-10-15T10:18:28.350Z,35.50
2022-10-15T10:20:59.945Z,30.85
2022-10-15T10:23:32.140Z,31.48
2022-10-15T10:26:01.023Z,27.98
2022-10-15T10:28:31.915Z,26.40
2022-10-15T10:31:05.124Z,25.83
2022-10-15T10:33:35.690Z,26.45
2022-10-15T10:36:07.221Z,23.02
2022-10-15T10:38:36.584Z,22.13
2022-10-15T10:41:07.850Z,22.50
2022-10-15T10:43:39.229Z,25.17
2022-10-15T10:46:12.781Z,21.17
2022-10-15T10:48:42.360Z,19.80
2022-10-15T10:51:16.648Z,18.15
2022-10-15T10:53:53.021Z,16.27
2022-10-15T10:56:24.331Z,20.48
2022-10-15T10:58:58.437Z,17.55
2022-10-15T11:01:26.892Z,15.88
2022-10-15T11:03:55.532Z,18.20
2022-10-15T11:06:35.554Z,15.93
2022-10-15T11:09:21.857Z,16.10
2022-10-15T11:11:57.480Z,16.98
2022-10-15T11:14:31.996Z,16.60
2022-10-15T11:17:05.439Z,16.60
2022-10-15T11:22:34.552Z,15.60
2022-10-15T11:25:07.685Z,13.88
2022-10-15T11:27:46.607Z,16.25
2022-10-15T11:30:29.475Z,17.15
2022-10-15T11:33:07.689Z,14.38
2022-10-15T11:35:53.006Z,12.82
2022-10-15T11:38:30.460Z,13.40
2022-10-15T11:41:07.140Z,13.20
2022-10-15T11:43:45.501Z,14.80
2022-10-15T11:46:16.048Z,13.25
2022-10-15T11:48:52.778Z,13.93
2022-10-15T11:51:27.684Z,13.85
2022-10-15T11:54:09.659Z,12.60
2022-10-15T11:56:40.532Z,12.15
2022-10-15T11:59:16.464Z,12.23
2022-10-15T12:01:48.310Z,12.02
2022-10-15T12:04:20.261Z,12.30
2022-10-15T12:06:50.781Z,11.30
2022-10-15T12:09:24.125Z,11.80
2022-10-15T12:11:55.262Z,11.50
2022-10-15T12:14:27.084Z,11.40
2022-10-15T12:16:59.190Z,10.43
2022-10-15T12:19:30.227Z,9.45
2022-10-15T12:22:06.901Z,9.70
2022-10-15T12:24:53.754Z,8.18
2022-10-15T12:27:26.946Z,9.02
2022-10-15T12:30:11.763Z,7.32
2022-10-15T12:32:42.142Z,6.97
2022-10-15T12:37:55.078Z,7.28
2022-10-15T12:40:32.075Z,6.95
2022-10-15T12:43:02.112Z,6.97
2022-10-15T12:45:37.451Z,6.97
2022-10-15T12:48:19.899Z,6.43
2022-10-15T12:50:48.546Z,6.60
2022-10-15T12:53:32.621Z,6.32
2022-10-15T12:56:16.012Z,6.35
2022-10-15T12:58:46.800Z,6.00
2022-10-15T13:01:30.183Z,5.88
2022-10-15T13:04:00.243Z,6.10
2022-10-15T13:06:40.249Z,5.28
2022-10-15T13:09:20.579Z,5.68
2022-10-15T13:14:24.479Z,4.82
2022-10-15T13:16:52.976Z,5.10
2022-10-15T13:19:22.263Z,5.20
2022-10-15T13:21:52.356Z,4.78
2022-10-15T13:24:21.609Z,5.68
2022-10-15T13:26:50.488Z,4.43
2022-10-15T13:29:19.490Z,4.75
2022-10-15T13:31:49.693Z,4.43
2022-10-15T13:34:22.763Z,5.00
2022-10-15T13:36:51.326Z,5.03
2022-10-15T13:39:25.054Z,3.92
2022-10-15T13:41:53.667Z,3.80
2022-10-15T13:44:23.610Z,4.25
2022-10-15T13:46:53.679Z,3.80
2022-10-15T13:49:24.169Z,3.50
2022-10-15T13:51:55.415Z,3.97
2022-10-15T13:54:25.198Z,4.88
2022-10-15T13:56:55.724Z,2.47
2022-10-15T13:59:25.090Z,2.72
2022-10-15T14:02:00.782Z,3.35
2022-10-15T14:04:30.158Z,2.40
2022-10-15T14:07:02.129Z,2.08
2022-10-15T14:09:32.918Z,1.40
2022-10-15T14:12:03.444Z,1.60
2022-10-15T14:14:33.653Z,1.60
2022-10-15T14:17:04.664Z,2.10
2022-10-15T14:19:34.178Z,1.80
2022-10-15T14:22:03.884Z,1.52
2022-10-15T14:24:34.306Z,3.60
2022-10-15T14:27:04.101Z,2.90
2022-10-15T14:29:37.631Z,1.80
2022-10-15T14:32:19.132Z,3.03
2022-10-15T14:34:47.674Z,1.90
2022-10-15T14:37:32.767Z,2.05
2022-10-15T14:40:05.813Z,2.60
2022-10-15T14:42:34.831Z,1.45
2022-10-15T14:45:13.271Z,2.15
2022-10-15T14:47:43.139Z,1.70
2022-10-15T14:50:12.350Z,1.90
2022-10-15T14:52:45.919Z,2.75
2022-10-15T14:55:17.938Z,2.97
2022-10-15T14:57:48.539Z,2.05
2022-10-15T15:00:19.198Z,4.88
2022-10-15T15:02:49.151Z,2.05
2022-10-15T15:05:21.312Z,1.95
2022-10-15T15:07:49.806Z,2.22
2022-10-15T15:10:18.544Z,2.00
2022-10-15T15:12:48.920Z,2.17
2022-10-15T15:15:18.320Z,2.15
2022-10-15T15:17:48.507Z,3.90
2022-10-15T15:20:20.186Z,2.60
2022-10-15T15:22:51.020Z,2.08
2022-10-15T15:25:20.976Z,2.45
2022-10-15T15:27:49.737Z,2.78
2022-10-15T15:30:19.173Z,3.15
2022-10-15T15:32:48.064Z,3.63
2022-10-15T15:35:22.325Z,2.53
2022-10-15T15:37:50.815Z,2.50
2022-10-15T15:40:19.332Z,3.00
2022-10-15T15:42:49.043Z,3.38
2022-10-15T15:45:19.796Z,2.67
2022-10-15T15:47:48.363Z,2.70
2022-10-15T15:50:17.327Z,4.60
2022-10-15T15:52:47.355Z,2.92
2022-10-15T15:55:16.148Z,3.88
2022-10-15T15:57:45.329Z,3.15
2022-10-15T16:00:14.272Z,2.47
2022-10-15T16:02:42.994Z,2.63
2022-10-15T16:05:13.658Z,2.53
2022-10-15T16:07:42.119Z,4.18
2022-10-15T16:10:12.862Z,2.83
2022-10-15T16:12:41.514Z,2.92
2022-10-15T16:15:13.588Z,2.85
2022-10-15T16:17:43.475Z,2.80
2022-10-15T16:20:12.867Z,2.72
2022-10-15T16:22:42.701Z,4.05
2022-10-15T16:25:12.689Z,3.05
2022-10-15T16:27:41.156Z,3.63
2022-10-15T16:30:09.914Z,2.78
2022-10-15T16:32:38.306Z,2.65
2022-10-15T16:35:07.492Z,4.00
2022-10-15T16:37:36.004Z,3.17
2022-10-15T16:40:04.629Z,3.60
2022-10-15T16:42:35.011Z,2.70
2022-10-15T16:45:03.523Z,2.70
2022-10-15T16:47:31.987Z,3.83
2022-10-15T16:50:00.473Z,2.85
2022-10-15T16:52:29.087Z,3.35
2022-10-15T16:54:57.663Z,2.92
2022-10-15T16:57:26.473Z,2.45
2022-10-15T16:59:56.474Z,2.75
2022-10-15T17:02:25.341Z,2.10
2022-10-15T17:04:54.182Z,2.20
2022-10-15T17:07:22.996Z,2.97
2022-10-15T17:09:51.722Z,3.17
2022-10-15T17:12:20.435Z,3.70
2022-10-15T17:14:51.872Z,4.32
2022-10-15T17:17:22.262Z,2.30
2022-10-15T17:19:50.827Z,6.35
2022-10-15T17:22:21.082Z,3.92
2022-10-15T17:24:51.043Z,3.70
2022-10-15T17:27:19.606Z,2.63
2022-10-15T17:29:48.065Z,3.38
2022-10-15T17:32:16.480Z,3.80
2022-10-15T17:34:46.338Z,4.50
2022-10-15T17:37:15.360Z,3.38
2022-10-15T17:39:44.032Z,3.50
2022-10-15T17:42:13.295Z,3.97
2022-10-15T17:44:41.776Z,3.80
2022-10-15T17:47:10.239Z,4.18
2022-10-15T17:49:38.679Z,3.33
2022-10-15T17:52:09.201Z,3.35
2022-10-15T17:54:37.664Z,3.70
2022-10-15T17:57:06.524Z,4.95
2022-10-15T17:59:34.970Z,3.83
2022-10-15T18:02:03.415Z,4.60
2022-10-15T18:04:32.006Z,3.95
2022-10-15T18:07:00.626Z,4.00
2022-10-15T18:09:30.535Z,4.30
2022-10-15T18:12:00.537Z,3.90
2022-10-15T18:14:29.120Z,3.85
2022-10-15T18:16:57.624Z,3.40
2022-10-15T18:19:26.740Z,4.22
2022-10-15T18:21:55.473Z,4.65
2022-10-15T18:24:24.300Z,3.95
2022-10-15T18:26:54.377Z,4.05
2022-10-15T18:29:25.396Z,5.57
2022-10-15T18:31:57.964Z,3.78
2022-10-15T18:34:30.451Z,4.28
2022-10-15T18:36:58.879Z,3.60
2022-10-15T18:39:27.467Z,4.30
2022-10-15T18:41:57.278Z,4.03
2022-10-15T18:44:27.844Z,3.78
2022-10-15T18:46:56.290Z,3.58
2022-10-15T18:49:24.751Z,3.40
2022-10-15T18:51:54.187Z,3.75
2022-10-15T18:54:23.188Z,4.00
2022-10-15T18:56:52.605Z,3.33
2022-10-15T18:59:22.697Z,4.05
2022-10-15T19:01:51.611Z,4.00
2022-10-15T19:04:20.699Z,3.58
2022-10-15T19:06:49.981Z,3.38
2022-10-15T19:09:20.402Z,3.35
2022-10-15T19:11:49.575Z,3.13
2022-10-15T19:14:18.326Z,3.45
2022-10-15T19:16:48.606Z,3.40
2022-10-15T19:19:18.077Z,3.85
2022-10-15T19:21:46.945Z,3.40
2022-10-15T19:24:16.013Z,3.50
2022-10-15T19:26:44.922Z,3.75
2022-10-15T19:29:13.571Z,3.40
2022-10-15T19:31:43.052Z,5.22
2022-10-15T19:34:13.299Z,3.50
2022-10-15T19:36:42.799Z,3.72
2022-10-15T19:39:12.953Z,4.70
2022-10-15T19:41:42.204Z,3.30
2022-10-15T19:44:11.391Z,4.18
2022-10-15T19:46:40.070Z,3.80
2022-10-15T19:49:08.937Z,2.78
2022-10-15T19:51:38.829Z,3.90
2022-10-15T19:54:07.234Z,3.30
2022-10-15T19:56:36.032Z,1.90
2022-10-15T19:59:05.895Z,1.85
2022-10-15T20:01:34.798Z,3.10
2022-10-15T20:04:06.219Z,1.65
2022-10-15T20:06:36.071Z,2.30
2022-10-15T20:09:06.598Z,1.60
2022-10-15T20:11:35.134Z,1.85
2022-10-15T20:14:03.979Z,1.60
2022-10-15T20:16:33.413Z,2.10
2022-10-15T20:19:02.913Z,2.63
2022-10-15T20:21:31.572Z,2.77
2022-10-15T20:24:03.869Z,1.05
2022-10-15T20:26:33.845Z,1.40
2022-10-15T20:29:02.485Z,2.03
2022-10-15T20:31:33.176Z,1.10
2022-10-15T20:34:02.295Z,1.02
2022-10-15T20:36:30.873Z,1.53
2022-10-15T20:39:00.753Z,1.10
2022-10-15T20:41:29.747Z,1.75
2022-10-15T20:43:59.692Z,1.30
2022-10-15T20:46:29.543Z,1.87
2022-10-15T20:49:02.260Z,1.90
2022-10-15T20:51:34.762Z,2.37
2022-10-15T20:54:03.492Z,2.57
2022-10-15T20:56:31.990Z,1.27
2022-10-15T20:59:01.921Z,1.63
2022-10-15T21:01:30.439Z,1.70
2022-10-15T21:03:58.919Z,3.60
2022-10-15T21:06:27.372Z,2.73
2022-10-15T21:08:55.815Z,1.33
2022-10-15T21:11:24.265Z,2.27
2022-10-15T21:13:52.683Z,1.70
2022-10-15T21:16:25.862Z,1.60
2022-10-15T21:18:56.732Z,2.53
2022-10-15T21:21:25.208Z,3.43
2022-10-15T21:23:53.676Z,2.43
2022-10-15T21:26:22.341Z,2.77
2022-10-15T21:28:54.966Z,2.37
2022-10-15T21:31:25.106Z,1.67
2022-10-15T21:33:53.762Z,2.27
2022-10-15T21:36:23.143Z,3.30
2022-10-15T21:38:54.144Z,1.30
2022-10-15T21:41:22.598Z,3.10
2022-10-15T21:43:51.130Z,2.20
2022-10-15T21:46:19.627Z,1.60
2022-10-15T21:48:49.458Z,2.00
2022-10-15T21:51:19.560Z,2.93
2022-10-15T21:53:48.123Z,2.63
2022-10-15T21:56:16.941Z,1.60
2022-10-15T21:58:45.707Z,1.80
2022-10-15T22:01:17.095Z,2.20
2022-10-15T22:03:49.810Z,4.60
2022-10-15T22:06:18.961Z,2.50
2022-10-15T22:08:47.570Z,4.40
2022-10-15T22:11:17.453Z,4.20
2022-10-15T22:13:47.061Z,2.00
2022-10-15T22:16:15.925Z,2.87
2022-10-15T22:18:44.711Z,2.80
2022-10-15T22:21:16.265Z,2.97
2022-10-15T22:23:45.252Z,2.37
2022-10-15T22:26:13.886Z,1.80
2022-10-15T22:28:43.038Z,2.17
2022-10-15T22:31:12.558Z,2.10
2022-10-15T22:33:41.806Z,2.53
2022-10-15T22:36:14.362Z,2.03
2022-10-15T22:38:44.646Z,2.30
2022-10-15T22:41:13.526Z,2.70
2022-10-15T22:43:42.285Z,3.87
2022-10-15T22:46:10.822Z,2.50
2022-10-15T22:48:40.214Z,3.73
2022-10-15T22:51:09.618Z,1.93
2022-10-15T22:53:38.356Z,2.57
2022-10-15T22:56:09.299Z,2.17
2022-10-15T22:58:37.761Z,1.93
2022-10-15T23:01:10.620Z,1.83
2022-10-15T23:03:39.570Z,1.50
2022-10-15T23:06:08.147Z,2.43
2022-10-15T23:08:36.875Z,2.27
2022-10-15T23:11:10.934Z,1.97
2022-10-15T23:13:39.755Z,2.63
2022-10-15T23:16:09.396Z,3.50
2022-10-15T23:18:37.802Z,3.97
2022-10-15T23:21:06.895Z,1.97
2022-10-15T23:23:35.376Z,3.80
2022-10-15T23:26:03.832Z,2.23
2022-10-15T23:28:33.707Z,4.27
2022-10-15T23:31:02.258Z,1.70
2022-10-15T23:33:30.682Z,3.20
2022-10-15T23:36:00.131Z,2.13
2022-10-15T23:38:29.225Z,2.40
2022-10-15T23:41:01.662Z,2.00
2022-10-15T23:43:30.358Z,3.87
2022-10-15T23:46:00.874Z,3.17
2022-10-15T23:48:29.755Z,4.97
2022-10-15T23:51:02.474Z,2.10
2022-10-15T23:53:33.656Z,3.10
2022-10-15T23:56:03.873Z,3.13
2022-10-15T23:58:33.133Z,2.53
